Time;durP1;ratioP1;P1;durP2;ratioP2;P2;SDS_P1;SDS_P2;PMS_P1;PMS_P2;Temp;Humidity;BMP_temperature;BMP_pressure;BME280_temperature;BME280_humidity;BME280_pressure;Samples;Min_cycle;Max_cycle;Signal;HPM_P1;HPM_P2
2023/07/05 00:00:09;;;;;;;13.43;7.20;;;17.20;99.90;;;;;;5093320;28;20556;-75
2023/07/05 00:02:37;;;;;;;9.23;6.20;;;17.10;99.90;;;;;;5094924;28;20933;-75
2023/07/05 00:05:07;;;;;;;11.63;6.57;;;17.10;99.90;;;;;;5093152;28;20449;-74
2023/07/05 00:07:35;;;;;;;12.70;6.60;;;17.10;99.90;;;;;;5094527;28;20440;-75
2023/07/05 00:10:06;;;;;;;11.83;6.80;;;17.00;99.90;;;;;;5094339;28;20452;-75
2023/07/05 00:12:34;;;;;;;11.20;7.17;;;17.00;99.90;;;;;;5094695;28;20943;-73
2023/07/05 00:15:03;;;;;;;12.03;7.23;;;17.00;99.90;;;;;;5094701;28;20466;-72
2023/07/05 00:17:32;;;;;;;9.53;6.30;;;16.90;99.90;;;;;;5094745;28;20414;-73
2023/07/05 00:20:01;;;;;;;11.03;7.30;;;16.90;99.90;;;;;;5094228;28;20552;-72
2023/07/05 00:22:32;;;;;;;11.17;7.23;;;16.90;99.90;;;;;;5094225;28;20435;-73
2023/07/05 00:25:03;;;;;;;12.07;7.90;;;16.90;99.90;;;;;;5092905;28;20527;-73
2023/07/05 00:27:32;;;;;;;11.57;7.70;;;16.90;99.90;;;;;;5094306;28;20512;-72
2023/07/05 00:30:02;;;;;;;14.57;8.30;;;16.80;99.90;;;;;;5092850;28;20504;-73
2023/07/05 00:32:30;;;;;;;10.30;7.60;;;16.80;99.90;;;;;;5092092;28;20450;-73
2023/07/05 00:34:58;;;;;;;12.57;6.90;;;16.80;99.90;;;;;;5094631;28;20604;-73
2023/07/05 00:37:26;;;;;;;11.90;7.67;;;16.80;99.90;;;;;;5092724;28;20454;-73
2023/07/05 00:39:55;;;;;;;12.00;8.30;;;16.70;99.90;;;;;;5094058;28;20476;-72
2023/07/05 00:42:25;;;;;;;13.47;7.97;;;16.70;99.90;;;;;;5092836;28;20523;-72
2023/07/05 00:45:40;;;;;;;10.63;7.70;;;16.70;99.90;;;;;;5092650;28;20448;-72
2023/07/05 00:48:13;;;;;;;8.40;7.50;;;16.70;99.90;;;;;;5092667;28;20947;-72
2023/07/05 00:50:46;;;;;;;9.53;7.90;;;16.60;99.90;;;;;;5092595;28;20475;-72
2023/07/05 00:53:14;;;;;;;11.90;8.10;;;16.60;99.90;;;;;;5092648;28;20515;-72
2023/07/05 00:55:47;;;;;;;12.93;8.80;;;16.60;99.90;;;;;;5092475;28;20820;-72
2023/07/05 00:58:16;;;;;;;12.23;8.10;;;16.60;99.90;;;;;;5092320;28;20467;-72
2023/07/05 01:00:46;;;;;;;11.47;8.20;;;16.60;99.90;;;;;;5092260;28;20484;-73
2023/07/05 01:03:20;;;;;;;11.37;8.87;;;16.60;99.90;;;;;;5092426;28;20468;-72
2023/07/05 01:05:52;;;;;;;12.10;8.70;;;16.60;99.90;;;;;;5093812;28;20430;-74
2023/07/05 01:08:23;;;;;;;11.87;8.70;;;16.50;99.90;;;;;;5093657;28;20513;-73
2023/07/05 01:11:02;;;;;;;15.30;8.80;;;16.50;99.90;;;;;;5093550;28;20440;-73
2023/07/05 01:13:35;;;;;;;13.20;9.17;;;16.50;99.90;;;;;;5092177;28;20440;-72
2023/07/05 01:16:19;;;;;;;14.00;9.90;;;16.50;99.90;;;;;;5094103;28;20507;-73
2023/07/05 01:18:54;;;;;;;11.10;8.93;;;16.50;99.90;;;;;;5093637;28;20550;-73
2023/07/05 01:21:27;;;;;;;16.97;9.30;;;16.40;99.90;;;;;;5093569;28;20465;-73
2023/07/05 01:24:12;;;;;;;12.50;9.57;;;16.40;99.90;;;;;;5092072;28;20447;-74
2023/07/05 01:26:56;;;;;;;11.03;8.87;;;16.40;99.90;;;;;;5092081;28;20815;-73
2023/07/05 01:29:53;;;;;;;14.50;8.97;;;16.40;99.90;;;;;;5092155;28;20589;-74
2023/07/05 01:32:25;;;;;;;11.73;9.07;;;16.40;99.90;;;;;;5092088;28;20458;-73
2023/07/05 01:35:06;;;;;;;10.30;8.70;;;16.40;99.90;;;;;;5093354;28;20468;-73
2023/07/05 01:37:38;;;;;;;12.70;9.00;;;16.40;99.90;;;;;;5091790;28;20479;-73
2023/07/05 01:40:35;;;;;;;12.30;8.57;;;16.40;99.90;;;;;;5093142;28;20464;-73
2023/07/05 01:43:09;;;;;;;11.77;9.20;;;16.40;99.90;;;;;;5091760;28;20419;-73
2023/07/05 01:45:46;;;;;;;11.33;7.70;;;16.40;99.90;;;;;;5095178;28;20830;-73
2023/07/05 01:48:25;;;;;;;11.57;8.90;;;16.40;99.90;;;;;;5095899;28;20428;-73
2023/07/05 01:51:02;;;;;;;12.77;8.67;;;16.40;99.90;;;;;;5097411;28;20420;-73
2023/07/05 01:53:36;;;;;;;12.90;9.20;;;16.40;99.90;;;;;;5095812;28;21130;-73
2023/07/05 01:56:08;;;;;;;12.60;9.47;;;16.40;99.90;;;;;;5097315;28;20897;-72
2023/07/05 01:58:46;;;;;;;12.87;9.10;;;16.30;99.90;;;;;;5097098;28;20447;-73
2023/07/05 02:01:18;;;;;;;11.97;8.30;;;16.30;99.90;;;;;;5095877;28;20440;-73
2023/07/05 02:03:50;;;;;;;13.90;9.10;;;16.30;99.90;;;;;;5095630;28;20932;-73
2023/07/05 02:06:20;;;;;;;12.87;8.90;;;16.30;99.90;;;;;;5096121;28;20436;-73
2023/07/05 02:08:51;;;;;;;12.23;8.70;;;16.30;99.90;;;;;;5095356;28;20446;-73
2023/07/05 02:11:19;;;;;;;13.53;8.70;;;16.30;99.90;;;;;;5097106;28;20416;-73
2023/07/05 02:13:48;;;;;;;10.30;8.83;;;16.30;99.90;;;;;;5097068;28;20472;-73
2023/07/05 02:16:17;;;;;;;13.07;9.93;;;16.30;99.90;;;;;;5101802;28;20943;-74
2023/07/05 02:18:46;;;;;;;11.17;9.27;;;16.40;99.90;;;;;;5103224;28;20796;-74
2023/07/05 02:21:15;;;;;;;14.13;10.03;;;16.40;99.90;;;;;;5096985;28;20554;-74
2023/07/05 02:23:43;;;;;;;13.80;10.50;;;16.40;99.90;;;;;;5099171;28;20451;-73
2023/07/05 02:26:12;;;;;;;12.53;9.23;;;16.40;99.90;;;;;;5098851;28;20440;-73
2023/07/05 02:28:40;;;;;;;13.53;10.20;;;16.30;99.90;;;;;;5096105;28;20438;-73
2023/07/05 02:31:11;;;;;;;13.20;10.80;;;16.30;99.90;;;;;;5096054;28;20468;-73
2023/07/05 02:33:43;;;;;;;13.00;10.37;;;16.30;99.90;;;;;;5095581;28;20440;-73
2023/07/05 02:36:15;;;;;;;16.70;10.13;;;16.30;99.90;;;;;;5097212;28;20454;-73
2023/07/05 02:38:44;;;;;;;13.13;10.43;;;16.20;99.90;;;;;;5096681;28;20464;-73
2023/07/05 02:41:12;;;;;;;14.00;10.30;;;16.20;99.90;;;;;;5095220;28;20567;-73
2023/07/05 02:43:41;;;;;;;13.13;9.70;;;16.20;99.90;;;;;;5095083;28;20884;-73
2023/07/05 02:46:09;;;;;;;12.90;10.50;;;16.20;99.90;;;;;;5094968;28;20415;-73
2023/07/05 02:48:37;;;;;;;13.20;10.83;;;16.10;99.90;;;;;;5094954;28;20833;-73
2023/07/05 02:51:05;;;;;;;15.03;10.93;;;16.10;99.90;;;;;;5094895;28;20510;-72
2023/07/05 02:53:34;;;;;;;14.03;11.40;;;16.10;99.90;;;;;;5096052;28;20510;-72
2023/07/05 02:56:04;;;;;;;13.10;10.00;;;16.00;99.90;;;;;;5095054;28;20414;-73
2023/07/05 02:58:32;;;;;;;11.70;9.93;;;16.00;99.90;;;;;;5094504;28;20502;-72
2023/07/05 03:01:00;;;;;;;14.33;10.40;;;16.00;99.90;;;;;;5096172;28;20895;-73
2023/07/05 03:03:28;;;;;;;16.20;11.10;;;16.00;99.90;;;;;;5095775;28;20440;-72
2023/07/05 03:05:58;;;;;;;16.07;10.53;;;16.00;99.90;;;;;;5095680;28;20446;-72
2023/07/05 03:08:28;;;;;;;14.20;11.40;;;16.00;99.90;;;;;;5097421;28;20444;-72
2023/07/05 03:10:58;;;;;;;14.00;11.03;;;16.00;99.90;;;;;;5099314;28;20789;-72
2023/07/05 03:13:28;;;;;;;13.60;10.20;;;15.90;99.90;;;;;;5097036;28;20410;-72
2023/07/05 03:15:57;;;;;;;11.90;10.70;;;15.90;99.90;;;;;;5096178;28;20420;-72
2023/07/05 03:18:25;;;;;;;13.17;10.97;;;15.90;99.90;;;;;;5094573;28;20549;-72
2023/07/05 03:20:54;;;;;;;13.20;10.50;;;15.90;99.90;;;;;;5096229;28;20442;-72
2023/07/05 03:23:23;;;;;;;13.83;11.70;;;15.90;99.90;;;;;;5095913;28;20883;-72
2023/07/05 03:25:59;;;;;;;13.43;12.07;;;15.80;99.90;;;;;;5094408;28;20505;-72
2023/07/05 03:28:31;;;;;;;14.17;12.07;;;15.80;99.90;;;;;;5096308;28;20795;-72
2023/07/05 03:31:02;;;;;;;15.77;11.90;;;15.80;99.90;;;;;;5095553;28;20427;-72
2023/07/05 03:33:32;;;;;;;15.60;12.30;;;15.80;99.90;;;;;;5093812;28;20407;-72
2023/07/05 03:36:01;;;;;;;14.67;11.90;;;15.70;99.90;;;;;;5093422;28;20958;-72
2023/07/05 03:38:30;;;;;;;15.97;12.77;;;15.70;99.90;;;;;;5093760;28;20526;-72
2023/07/05 03:41:02;;;;;;;12.80;10.70;;;15.70;99.90;;;;;;5095123;28;20465;-72
2023/07/05 03:43:32;;;;;;;15.40;12.30;;;15.70;99.90;;;;;;5093896;28;21024;-72
2023/07/05 03:46:04;;;;;;;13.30;12.00;;;15.70;99.90;;;;;;5095191;28;20415;-72
2023/07/05 03:48:35;;;;;;;16.20;11.90;;;15.70;99.90;;;;;;5094356;28;20559;-71
2023/07/05 03:51:07;;;;;;;15.63;12.17;;;15.70;99.90;;;;;;5095399;28;20429;-72
2023/07/05 03:53:36;;;;;;;13.30;11.90;;;15.70;99.90;;;;;;5093565;28;20448;-72
2023/07/05 03:56:08;;;;;;;14.97;11.40;;;15.70;99.90;;;;;;5094979;28;20531;-72
2023/07/05 03:58:36;;;;;;;17.00;11.80;;;15.70;99.90;;;;;;5094727;28;20427;-72
2023/07/05 04:01:07;;;;;;;18.30;15.10;;;15.70;99.90;;;;;;5095147;28;20438;-72
2023/07/05 04:03:36;;;;;;;16.00;11.93;;;15.60;99.90;;;;;;5094786;28;20429;-72
2023/07/05 04:06:05;;;;;;;15.70;12.70;;;15.60;99.90;;;;;;5093211;28;20907;-72
2023/07/05 04:08:33;;;;;;;14.00;12.33;;;15.60;99.90;;;;;;5094548;28;21087;-72
2023/07/05 04:11:01;;;;;;;15.33;12.50;;;15.60;99.90;;;;;;5093252;28;20462;-72
2023/07/05 04:13:30;;;;;;;14.60;12.27;;;15.60;99.90;;;;;;5094313;28;20933;-72
2023/07/05 04:16:00;;;;;;;13.90;11.53;;;15.60;99.90;;;;;;5094432;28;20443;-72
2023/07/05 04:18:30;;;;;;;13.50;11.07;;;15.60;99.90;;;;;;5094419;28;20547;-72
2023/07/05 04:20:58;;;;;;;13.20;11.13;;;15.60;99.90;;;;;;5092908;28;20496;-72
2023/07/05 04:23:27;;;;;;;13.63;12.23;;;15.60;99.90;;;;;;5094138;28;20407;-72
2023/07/05 04:26:02;;;;;;;15.57;12.30;;;15.60;99.90;;;;;;5094145;28;20535;-72
2023/07/05 04:28:33;;;;;;;12.57;11.27;;;15.60;99.90;;;;;;5093916;28;20447;-72
2023/07/05 04:31:02;;;;;;;15.70;13.77;;;15.60;99.90;;;;;;5094198;28;20420;-73
2023/07/05 04:33:30;;;;;;;14.73;13.10;;;15.60;99.90;;;;;;5092715;28;20415;-72
2023/07/05 04:36:01;;;;;;;14.30;12.50;;;15.60;99.90;;;;;;5093756;28;20446;-73
2023/07/05 04:38:29;;;;;;;13.30;11.10;;;15.60;99.90;;;;;;5093882;28;20529;-72
2023/07/05 04:40:59;;;;;;;13.57;12.20;;;15.60;99.90;;;;;;5093800;28;20499;-72
2023/07/05 04:43:28;;;;;;;16.03;13.30;;;15.60;99.90;;;;;;5094228;28;20403;-71
2023/07/05 04:46:00;;;;;;;14.40;13.00;;;15.50;99.90;;;;;;5092741;28;20418;-72
2023/07/05 04:48:30;;;;;;;17.73;13.20;;;15.50;99.90;;;;;;5093843;28;20426;-71
2023/07/05 04:50:58;;;;;;;14.47;12.50;;;15.50;99.90;;;;;;5093894;28;20512;-71
2023/07/05 04:53:28;;;;;;;14.40;12.00;;;15.50;99.90;;;;;;5093804;28;20403;-72
2023/07/05 04:55:58;;;;;;;15.10;13.20;;;15.50;99.90;;;;;;5093901;28;20461;-71
2023/07/05 04:58:26;;;;;;;15.10;12.67;;;15.50;99.90;;;;;;5094038;28;20426;-71
2023/07/05 05:01:03;;;;;;;16.20;12.60;;;15.50;99.90;;;;;;5093974;28;20567;-72
2023/07/05 05:03:32;;;;;;;17.33;15.40;;;15.50;99.90;;;;;;5094235;28;20448;-72
2023/07/05 05:06:01;;;;;;;14.27;12.77;;;15.50;99.90;;;;;;5093755;28;20480;-71
2023/07/05 05:08:29;;;;;;;14.60;12.90;;;15.50;99.90;;;;;;5093469;28;20493;-72
2023/07/05 05:10:59;;;;;;;17.57;15.17;;;15.60;99.90;;;;;;5093521;28;20896;-72
2023/07/05 05:13:28;;;;;;;15.53;13.27;;;15.60;99.90;;;;;;5093556;28;20925;-72
2023/07/05 05:15:56;;;;;;;16.17;13.87;;;15.60;99.90;;;;;;5093514;28;20409;-72
2023/07/05 05:18:29;;;;;;;14.27;12.80;;;15.60;99.90;;;;;;5093900;28;20509;-72
2023/07/05 05:20:57;;;;;;;17.33;13.60;;;15.60;99.90;;;;;;5097776;28;20456;-72
2023/07/05 05:23:26;;;;;;;14.00;12.60;;;15.60;99.90;;;;;;5097877;28;20407;-72
2023/07/05 05:25:54;;;;;;;14.83;12.97;;;15.70;99.90;;;;;;5097508;28;20436;-72
2023/07/05 05:28:23;;;;;;;15.30;12.53;;;15.70;99.90;;;;;;5096140;28;20438;-72
2023/07/05 05:30:51;;;;;;;13.70;12.30;;;15.70;99.90;;;;;;5097501;28;20432;-72
2023/07/05 05:33:19;;;;;;;14.47;12.90;;;15.70;99.90;;;;;;5096152;28;20839;-73
2023/07/05 05:35:50;;;;;;;14.13;12.33;;;15.70;99.90;;;;;;5097319;28;20848;-73
2023/07/05 05:38:19;;;;;;;15.80;14.10;;;15.80;99.90;;;;;;5097549;28;20807;-72
2023/07/05 05:40:49;;;;;;;12.90;11.60;;;15.80;99.90;;;;;;5097750;28;20940;-73
2023/07/05 05:43:18;;;;;;;15.37;12.87;;;15.80;99.90;;;;;;5097838;28;20417;-72
2023/07/05 05:45:47;;;;;;;13.80;12.40;;;15.80;99.90;;;;;;5097358;28;20432;-72
2023/07/05 05:48:15;;;;;;;16.77;12.67;;;15.80;99.90;;;;;;5097192;28;20439;-72
2023/07/05 05:50:43;;;;;;;14.87;12.80;;;15.80;99.90;;;;;;5097313;28;20438;-72
2023/07/05 05:53:13;;;;;;;13.63;12.23;;;15.80;99.90;;;;;;5097370;28;20455;-72
2023/07/05 05:55:41;;;;;;;15.17;13.57;;;15.80;99.90;;;;;;5097177;28;20446;-71
2023/07/05 05:58:10;;;;;;;13.30;11.10;;;15.90;99.90;;;;;;5097317;28;20436;-72
2023/07/05 06:00:39;;;;;;;14.87;13.17;;;15.90;99.90;;;;;;5096873;28;20444;-71
2023/07/05 06:03:07;;;;;;;15.00;13.50;;;15.90;99.90;;;;;;5097154;28;20749;-73
2023/07/05 06:05:36;;;;;;;13.20;11.80;;;15.90;99.90;;;;;;5097107;28;20440;-72
2023/07/05 06:08:05;;;;;;;13.37;11.97;;;15.90;99.90;;;;;;5096683;28;20430;-72
2023/07/05 06:10:35;;;;;;;12.63;11.33;;;15.90;99.90;;;;;;5096704;28;20462;-72
2023/07/05 06:13:03;;;;;;;12.40;11.10;;;15.90;99.90;;;;;;5097603;28;20394;-73
2023/07/05 06:15:31;;;;;;;12.53;11.23;;;15.90;99.90;;;;;;5097114;28;20565;-72
2023/07/05 06:17:59;;;;;;;13.27;11.90;;;16.00;99.90;;;;;;5096833;28;20935;-71
2023/07/05 06:20:29;;;;;;;14.03;12.63;;;16.00;99.90;;;;;;5096860;28;20439;-72
2023/07/05 06:22:58;;;;;;;15.87;12.60;;;16.00;99.90;;;;;;5096930;28;20474;-72
2023/07/05 06:25:26;;;;;;;13.67;11.53;;;16.00;99.90;;;;;;5095500;28;20931;-72
2023/07/05 06:27:55;;;;;;;12.93;11.63;;;16.10;99.90;;;;;;5096658;28;20822;-72
2023/07/05 06:30:23;;;;;;;13.43;11.10;;;16.10;99.90;;;;;;5096368;28;20486;-72
2023/07/05 06:32:52;;;;;;;14.13;11.13;;;16.20;99.90;;;;;;5095084;28;20490;-72
2023/07/05 06:35:20;;;;;;;12.93;11.60;;;16.20;99.90;;;;;;5096253;28;20477;-72
2023/07/05 06:37:48;;;;;;;14.00;10.80;;;16.20;99.90;;;;;;5096661;28;20484;-73
2023/07/05 06:40:16;;;;;;;21.00;16.93;;;16.30;99.90;;;;;;5096124;28;20423;-72
2023/07/05 06:42:44;;;;;;;11.67;10.47;;;16.30;99.90;;;;;;5096595;28;20509;-72
2023/07/05 06:45:17;;;;;;;12.93;9.90;;;16.30;99.90;;;;;;5095089;28;20452;-72
2023/07/05 06:47:45;;;;;;;10.87;9.20;;;16.40;99.90;;;;;;5096485;28;20447;-72
2023/07/05 06:50:14;;;;;;;10.23;8.70;;;16.40;99.90;;;;;;5096013;28;20865;-72
2023/07/05 06:52:42;;;;;;;11.30;8.30;;;16.50;99.90;;;;;;5095919;28;20450;-72
2023/07/05 06:55:11;;;;;;;16.50;7.37;;;16.50;99.90;;;;;;5094899;28;20415;-71
2023/07/05 06:57:40;;;;;;;8.90;6.33;;;16.50;99.90;;;;;;5095971;28;21057;-72
2023/07/05 07:00:10;;;;;;;6.63;4.97;;;16.60;99.90;;;;;;5094886;28;20514;-71
2023/07/05 07:02:39;;;;;;;6.33;4.53;;;16.60;99.90;;;;;;5096524;28;20457;-71
2023/07/05 07:05:08;;;;;;;8.03;4.70;;;16.60;99.90;;;;;;5096451;28;20439;-71
2023/07/05 07:07:36;;;;;;;8.00;4.50;;;16.60;99.90;;;;;;5096483;28;20794;-71
2023/07/05 07:10:05;;;;;;;5.47;3.57;;;16.50;99.90;;;;;;5097466;28;21033;-71
2023/07/05 07:12:33;;;;;;;5.57;3.33;;;16.70;99.90;;;;;;5098657;28;20503;-71
2023/07/05 07:15:01;;;;;;;7.23;3.70;;;16.80;99.90;;;;;;5097782;28;20419;-71
2023/07/05 07:17:29;;;;;;;7.00;3.70;;;16.90;99.90;;;;;;5097443;28;20928;-71
2023/07/05 07:19:59;;;;;;;5.77;3.40;;;17.10;99.90;;;;;;5096177;28;20795;-71
2023/07/05 07:22:27;;;;;;;8.00;3.20;;;17.30;99.90;;;;;;5096110;28;20460;-71
2023/07/05 07:24:55;;;;;;;5.70;3.20;;;17.40;99.90;;;;;;5094812;28;20775;-71
2023/07/05 07:27:23;;;;;;;6.00;3.60;;;17.50;99.90;;;;;;5095707;28;20443;-70
2023/07/05 07:29:53;;;;;;;6.00;3.70;;;17.70;99.90;;;;;;5095614;28;21030;-71
2023/07/05 07:32:21;;;;;;;6.60;3.27;;;17.80;99.90;;;;;;5095775;28;20419;-71
2023/07/05 07:34:53;;;;;;;5.57;3.10;;;18.00;99.90;;;;;;5095767;28;20440;-71
2023/07/05 07:37:23;;;;;;;5.50;3.20;;;18.10;99.90;;;;;;5095459;28;20466;-71
2023/07/05 07:39:51;;;;;;;8.00;3.50;;;18.10;99.90;;;;;;5095679;28;20451;-71
2023/07/05 07:42:19;;;;;;;7.03;4.37;;;18.20;99.90;;;;;;5093337;28;20494;-72
2023/07/05 07:44:47;;;;;;;5.47;3.20;;;18.30;99.90;;;;;;5094983;28;20525;-71
2023/07/05 07:47:15;;;;;;;6.00;3.63;;;18.30;99.90;;;;;;5095151;28;20440;-71
2023/07/05 07:49:44;;;;;;;5.50;3.27;;;18.40;99.90;;;;;;5095180;28;20510;-72
2023/07/05 07:52:13;;;;;;;6.53;3.80;;;18.50;99.90;;;;;;5095004;28;20527;-71
2023/07/05 07:54:44;;;;;;;8.83;4.30;;;18.50;99.90;;;;;;5095212;28;20493;-71
2023/07/05 07:57:12;;;;;;;6.97;4.07;;;18.50;99.90;;;;;;5095419;28;20515;-70
2023/07/05 07:59:41;;;;;;;6.07;3.43;;;18.60;99.90;;;;;;5094914;28;20971;-70
2023/07/05 08:02:13;;;;;;;5.77;3.23;;;18.60;99.90;;;;;;5093424;28;20472;-71
2023/07/05 08:04:44;;;;;;;6.10;3.80;;;18.70;99.90;;;;;;5095299;28;20432;-72
2023/07/05 08:07:14;;;;;;;5.90;3.37;;;18.70;99.90;;;;;;5095301;28;20421;-71
2023/07/05 08:09:46;;;;;;;6.47;4.00;;;18.70;99.90;;;;;;5094717;28;20448;-70
2023/07/05 08:12:14;;;;;;;8.43;3.40;;;18.60;99.90;;;;;;5095045;28;20445;-71
2023/07/05 08:14:42;;;;;;;6.30;3.80;;;18.60;99.90;;;;;;5094461;28;20837;-70
2023/07/05 08:17:10;;;;;;;7.27;4.07;;;18.50;99.90;;;;;;5094517;28;20436;-71
2023/07/05 08:19:39;;;;;;;7.53;3.77;;;18.60;99.90;;;;;;5093027;28;20466;-71
2023/07/05 08:22:08;;;;;;;7.80;3.90;;;18.60;99.90;;;;;;5093155;28;20479;-71
2023/07/05 08:24:36;;;;;;;6.53;3.90;;;18.70;99.90;;;;;;5094500;28;21009;-71
2023/07/05 08:27:06;;;;;;;5.53;3.47;;;18.80;99.90;;;;;;5094296;28;20439;-71
2023/07/05 08:29:34;;;;;;;5.40;3.30;;;18.90;99.90;;;;;;5094140;28;20455;-71
2023/07/05 08:32:03;;;;;;;5.90;4.27;;;18.90;99.90;;;;;;5094135;28;20464;-71
2023/07/05 08:34:31;;;;;;;7.80;4.40;;;19.00;99.90;;;;;;5095064;28;20502;-71
2023/07/05 08:37:01;;;;;;;6.90;4.63;;;19.10;99.90;;;;;;5094686;28;20539;-71
2023/07/05 08:39:30;;;;;;;6.30;3.80;;;19.20;99.90;;;;;;5092724;28;20464;-71
2023/07/05 08:42:13;;;;;;;7.43;4.13;;;19.30;99.90;;;;;;5094006;28;20423;-71
2023/07/05 08:44:53;;;;;;;6.00;3.97;;;19.30;99.90;;;;;;5094688;28;20953;-72
2023/07/05 08:47:28;;;;;;;7.53;4.10;;;19.30;99.90;;;;;;5094178;28;20412;-71
2023/07/05 08:50:05;;;;;;;8.40;3.87;;;19.30;99.90;;;;;;5092698;28;20452;-72
2023/07/05 08:53:01;;;;;;;7.37;3.30;;;19.30;99.90;;;;;;5094321;28;20467;-71
2023/07/05 08:55:45;;;;;;;7.20;3.60;;;19.30;99.90;;;;;;5093405;28;20422;-71
2023/07/05 08:58:21;;;;;;;6.23;3.30;;;19.40;99.90;;;;;;5094015;28;20478;-72
2023/07/05 09:00:54;;;;;;;6.03;3.40;;;19.40;99.90;;;;;;5092698;28;20490;-71
2023/07/05 09:03:28;;;;;;;6.17;3.40;;;19.40;99.90;;;;;;5093859;28;20455;-71
2023/07/05 09:06:08;;;;;;;6.80;3.23;;;19.40;99.90;;;;;;5094260;28;20423;-71
2023/07/05 09:08:48;;;;;;;5.20;2.47;;;19.40;99.90;;;;;;5093929;28;20939;-71
2023/07/05 09:11:25;;;;;;;11.97;3.33;;;19.50;99.90;;;;;;5094142;28;20821;-72
2023/07/05 09:14:03;;;;;;;6.03;2.97;;;19.40;99.90;;;;;;5092387;28;20443;-71
2023/07/05 09:16:40;;;;;;;5.20;3.13;;;19.40;99.90;;;;;;5094123;28;20427;-70
2023/07/05 09:19:16;;;;;;;6.33;2.70;;;19.30;99.90;;;;;;5094528;28;20456;-71
2023/07/05 09:21:48;;;;;;;6.60;2.90;;;19.30;99.90;;;;;;5094004;28;20541;-71
2023/07/05 09:24:23;;;;;;;6.30;2.60;;;19.30;99.90;;;;;;5093231;28;20969;-72
2023/07/05 09:26:54;;;;;;;6.30;2.80;;;19.20;99.90;;;;;;5095082;28;20426;-71
2023/07/05 09:29:30;;;;;;;7.10;2.70;;;19.20;99.90;;;;;;5094771;28;20547;-72
2023/07/05 09:32:05;;;;;;;8.97;3.23;;;19.20;99.90;;;;;;5093008;28;20448;-71
2023/07/05 09:34:38;;;;;;;7.20;3.37;;;19.10;99.90;;;;;;5093297;28;20491;-72
2023/07/05 09:37:18;;;;;;;6.60;3.10;;;19.10;99.90;;;;;;5094904;28;20569;-72
2023/07/05 09:40:06;;;;;;;5.67;2.47;;;19.10;99.90;;;;;;5093338;28;20869;-72
2023/07/05 09:42:41;;;;;;;6.80;2.70;;;19.10;99.90;;;;;;5094702;28;20412;-72
2023/07/05 09:45:14;;;;;;;6.87;2.47;;;19.00;99.90;;;;;;5098847;28;20412;-72
2023/07/05 09:47:43;;;;;;;5.63;2.60;;;19.00;99.90;;;;;;5098392;28;20455;-71
2023/07/05 09:50:13;;;;;;;5.30;2.80;;;18.90;99.90;;;;;;5095411;28;20455;-72
2023/07/05 09:52:42;;;;;;;6.60;2.90;;;18.80;99.90;;;;;;5097447;28;20542;-72
2023/07/05 09:55:14;;;;;;;6.00;2.40;;;18.80;99.90;;;;;;5096465;28;20444;-72
2023/07/05 09:57:42;;;;;;;5.33;2.87;;;18.80;99.90;;;;;;5096329;28;20412;-71
2023/07/05 10:00:29;;;;;;;6.27;3.00;;;18.70;99.90;;;;;;5095736;28;20452;-71
2023/07/05 10:03:06;;;;;;;9.40;3.30;;;18.70;99.90;;;;;;5094713;28;20456;-71
2023/07/05 10:05:35;;;;;;;15.47;2.93;;;18.70;99.90;;;;;;5096825;28;20408;-71
2023/07/05 10:08:14;;;;;;;9.30;2.97;;;18.70;99.90;;;;;;5099608;28;20470;-71
2023/07/05 10:10:43;;;;;;;10.50;2.83;;;18.70;99.90;;;;;;5098763;28;20424;-72
2023/07/05 10:13:14;;;;;;;7.23;3.00;;;18.70;99.90;;;;;;5096718;28;20852;-71
2023/07/05 10:15:47;;;;;;;5.37;2.57;;;18.70;99.90;;;;;;5097923;28;20420;-71
2023/07/05 10:18:27;;;;;;;5.97;2.63;;;18.80;99.90;;;;;;5098367;28;20816;-71
2023/07/05 10:20:58;;;;;;;5.43;2.43;;;18.90;99.90;;;;;;5097957;28;20420;-71
2023/07/05 10:23:28;;;;;;;6.60;2.43;;;18.90;99.90;;;;;;5098131;28;20452;-71
2023/07/05 10:26:01;;;;;;;6.10;2.57;;;19.00;99.90;;;;;;5097370;28;20436;-71
2023/07/05 10:28:31;;;;;;;6.10;2.57;;;19.00;99.90;;;;;;5097535;28;20542;-71
2023/07/05 10:31:04;;;;;;;7.23;2.30;;;19.00;99.90;;;;;;5097850;28;20450;-72
2023/07/05 10:33:35;;;;;;;5.80;2.60;;;18.90;99.90;;;;;;5097519;28;20416;-71
2023/07/05 10:36:06;;;;;;;6.77;2.50;;;18.80;99.90;;;;;;5095831;28;20933;-72
2023/07/05 10:38:46;;;;;;;6.60;2.57;;;18.70;99.90;;;;;;5097659;28;20795;-71
2023/07/05 10:41:25;;;;;;;6.50;2.40;;;18.60;99.90;;;;;;5097374;28;20444;-71
2023/07/05 10:43:58;;;;;;;7.50;2.60;;;18.50;99.90;;;;;;5097250;28;20448;-72
2023/07/05 10:46:28;;;;;;;5.87;2.37;;;18.40;99.90;;;;;;5096266;28;20507;-72
2023/07/05 10:48:58;;;;;;;8.10;2.90;;;18.30;99.90;;;;;;5096094;28;20463;-72
2023/07/05 10:51:32;;;;;;;6.27;2.97;;;18.30;99.90;;;;;;5096225;28;20432;-71
2023/07/05 10:54:06;;;;;;;9.67;3.10;;;18.20;99.90;;;;;;5096327;28;20412;-71
2023/07/05 10:56:36;;;;;;;8.53;2.80;;;18.10;99.90;;;;;;5095873;28;20777;-71
2023/07/05 10:59:12;;;;;;;8.37;3.20;;;18.00;99.90;;;;;;5096222;28;20816;-72
2023/07/05 11:01:48;;;;;;;10.43;3.30;;;18.00;99.90;;;;;;5096173;28;20532;-71
2023/07/05 11:04:21;;;;;;;10.63;6.10;;;17.90;99.90;;;;;;5096414;28;20452;-72
2023/07/05 11:06:53;;;;;;;6.30;3.07;;;17.90;99.90;;;;;;5095995;28;20424;-72
2023/07/05 11:09:21;;;;;;;7.37;3.00;;;17.90;99.90;;;;;;5096052;28;21021;-71
2023/07/05 11:11:55;;;;;;;9.33;3.03;;;17.80;99.90;;;;;;5096079;28;20466;-72
2023/07/05 11:14:27;;;;;;;6.50;3.03;;;17.70;99.90;;;;;;5101071;28;20413;-71
2023/07/05 11:16:58;;;;;;;7.60;2.83;;;17.70;99.90;;;;;;5096210;28;20849;-72
2023/07/05 11:19:29;;;;;;;6.23;3.10;;;17.60;99.90;;;;;;5096031;28;20473;-73
2023/07/05 11:21:58;;;;;;;6.00;2.73;;;17.50;99.90;;;;;;5095847;28;20531;-72
2023/07/05 11:24:42;;;;;;;6.10;2.97;;;17.40;99.90;;;;;;5095524;28;20556;-72
2023/07/05 11:27:48;;;;;;;5.50;2.80;;;17.40;99.90;;;;;;5094467;28;20436;-72
2023/07/05 11:30:46;;;;;;;6.37;3.03;;;17.30;99.90;;;;;;5095347;28;20455;-72
2023/07/05 11:33:22;;;;;;;7.03;3.77;;;17.30;99.90;;;;;;5033480;28;20792;-74
2023/07/05 11:35:54;;;;;;;6.20;3.27;;;17.30;99.90;;;;;;5084633;28;20452;-74
2023/07/05 11:38:55;;;;;;;6.57;3.83;;;17.30;99.90;;;;;;5095624;28;20454;-72
2023/07/05 11:41:32;;;;;;;5.67;3.13;;;17.40;99.90;;;;;;5032733;28;20442;-73
2023/07/05 11:44:03;;;;;;;7.40;3.53;;;17.40;99.90;;;;;;5086793;28;20521;-73
2023/07/05 11:46:49;;;;;;;5.37;2.90;;;17.40;99.90;;;;;;5095060;28;20398;-73
2023/07/05 11:49:32;;;;;;;7.30;2.40;;;17.40;99.90;;;;;;5094972;28;20459;-73
2023/07/05 11:52:13;;;;;;;6.70;2.10;;;17.50;99.90;;;;;;5094843;28;20431;-73
2023/07/05 11:54:48;;;;;;;5.20;2.20;;;17.50;99.90;;;;;;5093569;28;20523;-73
2023/07/05 11:57:16;;;;;;;6.87;2.20;;;17.50;99.90;;;;;;5094885;28;20454;-73
2023/07/05 11:59:52;;;;;;;5.13;2.10;;;17.50;99.90;;;;;;5094668;28;20517;-71
2023/07/05 12:02:46;;;;;;;5.07;1.90;;;17.50;99.90;;;;;;5093630;28;20443;-73
2023/07/05 12:05:18;;;;;;;4.63;2.20;;;17.60;99.90;;;;;;5094710;28;20452;-73
2023/07/05 12:07:52;;;;;;;5.80;2.23;;;17.60;99.90;;;;;;5095203;28;20405;-73
2023/07/05 12:10:23;;;;;;;8.20;2.17;;;17.70;99.90;;;;;;5094439;28;20451;-71
2023/07/05 12:12:51;;;;;;;6.23;2.13;;;17.70;99.90;;;;;;5094695;28;20423;-71
2023/07/05 12:15:20;;;;;;;5.17;2.13;;;17.70;99.90;;;;;;5094249;28;20847;-72
2023/07/05 12:17:48;;;;;;;5.07;2.20;;;17.70;99.90;;;;;;5094424;28;21023;-73
2023/07/05 12:20:34;;;;;;;7.60;2.50;;;17.70;99.90;;;;;;5094483;28;20492;-73
2023/07/05 12:23:03;;;;;;;5.00;1.90;;;17.70;99.90;;;;;;5094458;28;20504;-73
2023/07/05 12:25:32;;;;;;;7.83;1.60;;;17.60;99.90;;;;;;5094699;28;20460;-73
2023/07/05 12:28:02;;;;;;;6.50;1.87;;;17.60;99.90;;;;;;5094021;28;20432;-73
2023/07/05 12:30:38;;;;;;;6.40;2.00;;;17.60;99.90;;;;;;5094252;28;20472;-73
2023/07/05 12:33:19;;;;;;;5.00;2.03;;;17.60;99.90;;;;;;5092755;28;20553;-73
2023/07/05 12:36:05;;;;;;;6.30;1.90;;;17.60;99.90;;;;;;5094340;28;20508;-74
2023/07/05 12:38:34;;;;;;;5.80;1.77;;;17.60;99.90;;;;;;5094250;28;21003;-73
2023/07/05 12:41:02;;;;;;;6.07;2.03;;;17.60;99.90;;;;;;5094589;28;20468;-73
2023/07/05 12:43:32;;;;;;;9.83;2.10;;;17.60;99.90;;;;;;5094109;28;20501;-72
2023/07/05 12:46:08;;;;;;;4.40;1.67;;;17.60;99.90;;;;;;5093830;28;20992;-73
2023/07/05 12:48:37;;;;;;;6.07;1.53;;;17.60;99.90;;;;;;5093930;28;20448;-74
2023/07/05 12:51:13;;;;;;;6.83;2.07;;;17.60;99.90;;;;;;5094051;28;20490;-72
2023/07/05 12:53:42;;;;;;;5.53;1.67;;;17.60;99.90;;;;;;5093704;28;20512;-72
2023/07/05 12:56:12;;;;;;;8.80;1.70;;;17.70;99.90;;;;;;5093763;28;20531;-73
2023/07/05 12:58:50;;;;;;;6.93;2.33;;;17.70;99.90;;;;;;5093573;28;20923;-72
2023/07/05 13:01:19;;;;;;;6.90;2.10;;;17.80;99.90;;;;;;5093945;28;20420;-73